KPNE

Northeast Philadelphia Airport

Philadelphia, Pennsylvania, USA
METAR KPNE 190254Z 32004KT 10SM CLR 22/19 A2982 RMK AO2 SLP095 T02220194 51003
Observed Flight Rules
Sep-19 @ 02:54 UTC (an hour ago) Visual Flight Rules
Wind Visibility Clouds
320° at 4 knots 10 miles
  • Clear skies
Temperatures Readings
Current 22°C / 72°F
Dewpoint 19°C / 66°F
Humidity 83%
Altimeter 29.82" Hg
Pressure 1009.5 hPa
Elevation 28
METAR KPNE 190254Z 32004KT 10SM CLR 22/19 A2982 RMK AO2 SLP095 T02220194 51003
Observed Flight Rules
Sep-19 @ 02:54 UTC
(an hour ago)
VFR
Wind Visibility
320° at 4 knots 10 miles
Clouds
  • Clear skies
Temperature Dewpoint
22°C / 72°F 19°C / 66°F
Humidity Altimeter Pressure
83% 29.82" Hg 1009.5 hPa